sensor_id;sensor_type;location;lat;lon;timestamp;temperature;humidity
43183;DHT22;28802;38.578;-0.066;2022-10-31T00:02:11;18.20;99.90
43183;DHT22;28802;38.578;-0.066;2022-10-31T00:04:37;18.20;99.90
43183;DHT22;28802;38.578;-0.066;2022-10-31T00:07:03;18.20;99.90
43183;DHT22;28802;38.578;-0.066;2022-10-31T00:09:29;18.20;99.90
43183;DHT22;28802;38.578;-0.066;2022-10-31T00:11:55;18.20;99.90
43183;DHT22;28802;38.578;-0.066;2022-10-31T00:14:21;18.20;99.90
43183;DHT22;28802;38.578;-0.066;2022-10-31T00:16:47;18.20;99.90
43183;DHT22;28802;38.578;-0.066;2022-10-31T00:19:12;18.20;99.90
43183;DHT22;28802;38.578;-0.066;2022-10-31T00:21:38;18.20;99.90
43183;DHT22;28802;38.578;-0.066;2022-10-31T00:24:05;18.20;99.90
43183;DHT22;28802;38.578;-0.066;2022-10-31T00:26:31;18.20;99.90
43183;DHT22;28802;38.578;-0.066;2022-10-31T00:29:00;18.20;99.90
43183;DHT22;28802;38.578;-0.066;2022-10-31T00:31:27;18.10;99.90
43183;DHT22;28802;38.578;-0.066;2022-10-31T00:33:53;18.10;99.90
43183;DHT22;28802;38.578;-0.066;2022-10-31T00:36:20;18.10;99.90
43183;DHT22;28802;38.578;-0.066;2022-10-31T00:38:47;18.00;99.90
43183;DHT22;28802;38.578;-0.066;2022-10-31T00:41:15;18.00;99.90
43183;DHT22;28802;38.578;-0.066;2022-10-31T00:43:42;18.00;99.90
43183;DHT22;28802;38.578;-0.066;2022-10-31T00:46:09;18.00;99.90
43183;DHT22;28802;38.578;-0.066;2022-10-31T00:48:35;18.00;99.90
43183;DHT22;28802;38.578;-0.066;2022-10-31T00:51:01;17.90;99.90
43183;DHT22;28802;38.578;-0.066;2022-10-31T00:53:27;17.90;99.90
43183;DHT22;28802;38.578;-0.066;2022-10-31T00:55:53;17.90;99.90
43183;DHT22;28802;38.578;-0.066;2022-10-31T00:58:19;17.90;99.90
43183;DHT22;28802;38.578;-0.066;2022-10-31T01:00:50;17.90;99.90
43183;DHT22;28802;38.578;-0.066;2022-10-31T01:03:24;17.90;99.90
43183;DHT22;28802;38.578;-0.066;2022-10-31T01:06:02;17.80;99.90
43183;DHT22;28802;38.578;-0.066;2022-10-31T01:08:29;17.80;99.90
43183;DHT22;28802;38.578;-0.066;2022-10-31T01:11:08;17.90;99.90
43183;DHT22;28802;38.578;-0.066;2022-10-31T01:13:36;17.90;99.90
43183;DHT22;28802;38.578;-0.066;2022-10-31T01:16:03;17.80;99.90
43183;DHT22;28802;38.578;-0.066;2022-10-31T01:18:32;17.80;99.90
43183;DHT22;28802;38.578;-0.066;2022-10-31T01:21:03;17.80;99.90
43183;DHT22;28802;38.578;-0.066;2022-10-31T01:23:30;17.70;99.90
43183;DHT22;28802;38.578;-0.066;2022-10-31T01:26:01;17.70;99.90
43183;DHT22;28802;38.578;-0.066;2022-10-31T01:28:27;17.70;99.90
43183;DHT22;28802;38.578;-0.066;2022-10-31T01:30:53;17.80;99.90
43183;DHT22;28802;38.578;-0.066;2022-10-31T01:33:19;17.90;99.90
43183;DHT22;28802;38.578;-0.066;2022-10-31T01:35:44;17.80;99.90
43183;DHT22;28802;38.578;-0.066;2022-10-31T01:38:10;17.80;99.90
43183;DHT22;28802;38.578;-0.066;2022-10-31T01:40:36;17.80;99.90
43183;DHT22;28802;38.578;-0.066;2022-10-31T01:43:02;17.80;99.90
43183;DHT22;28802;38.578;-0.066;2022-10-31T01:45:28;17.70;99.90
43183;DHT22;28802;38.578;-0.066;2022-10-31T01:47:53;17.70;99.90
43183;DHT22;28802;38.578;-0.066;2022-10-31T01:50:28;17.80;99.90
43183;DHT22;28802;38.578;-0.066;2022-10-31T01:52:57;17.80;99.90
43183;DHT22;28802;38.578;-0.066;2022-10-31T01:55:35;17.80;99.90
43183;DHT22;28802;38.578;-0.066;2022-10-31T01:58:09;17.80;99.90
43183;DHT22;28802;38.578;-0.066;2022-10-31T02:00:38;17.70;99.90
43183;DHT22;28802;38.578;-0.066;2022-10-31T02:03:05;17.60;99.90
43183;DHT22;28802;38.578;-0.066;2022-10-31T02:05:31;17.60;99.90
43183;DHT22;28802;38.578;-0.066;2022-10-31T02:10:38;17.60;99.90
43183;DHT22;28802;38.578;-0.066;2022-10-31T02:13:07;17.60;99.90
43183;DHT22;28802;38.578;-0.066;2022-10-31T02:15:43;17.60;99.90
43183;DHT22;28802;38.578;-0.066;2022-10-31T02:18:09;17.60;99.90
43183;DHT22;28802;38.578;-0.066;2022-10-31T02:29:04;17.60;99.90
43183;DHT22;28802;38.578;-0.066;2022-10-31T02:37:37;17.60;99.90
43183;DHT22;28802;38.578;-0.066;2022-10-31T02:40:14;17.60;99.90
43183;DHT22;28802;38.578;-0.066;2022-10-31T02:43:20;17.70;99.90
43183;DHT22;28802;38.578;-0.066;2022-10-31T02:48:27;17.70;99.90
43183;DHT22;28802;38.578;-0.066;2022-10-31T02:51:02;17.70;99.90
43183;DHT22;28802;38.578;-0.066;2022-10-31T02:53:33;17.60;99.90
43183;DHT22;28802;38.578;-0.066;2022-10-31T02:58:31;17.60;99.90
43183;DHT22;28802;38.578;-0.066;2022-10-31T03:18:08;17.50;99.90
43183;DHT22;28802;38.578;-0.066;2022-10-31T03:20:52;17.40;99.90
43183;DHT22;28802;38.578;-0.066;2022-10-31T03:23:22;17.40;99.90
43183;DHT22;28802;38.578;-0.066;2022-10-31T03:25:51;17.30;99.90
43183;DHT22;28802;38.578;-0.066;2022-10-31T03:28:28;17.30;99.90
43183;DHT22;28802;38.578;-0.066;2022-10-31T03:30:56;17.30;99.90
43183;DHT22;28802;38.578;-0.066;2022-10-31T03:33:29;17.20;
43183;DHT22;28802;38.578;-0.066;2022-10-31T03:36:06;17.30;99.90
43183;DHT22;28802;38.578;-0.066;2022-10-31T03:38:35;17.30;99.90
43183;DHT22;28802;38.578;-0.066;2022-10-31T03:41:04;17.30;99.90
43183;DHT22;28802;38.578;-0.066;2022-10-31T03:43:36;17.30;99.90
43183;DHT22;28802;38.578;-0.066;2022-10-31T03:46:04;17.30;99.90
43183;DHT22;28802;38.578;-0.066;2022-10-31T03:48:31;17.30;99.90
43183;DHT22;28802;38.578;-0.066;2022-10-31T03:51:32;17.20;99.90
43183;DHT22;28802;38.578;-0.066;2022-10-31T03:56:57;17.20;99.90
43183;DHT22;28802;38.578;-0.066;2022-10-31T03:59:26;17.20;99.90
43183;DHT22;28802;38.578;-0.066;2022-10-31T04:01:59;17.30;99.90
43183;DHT22;28802;38.578;-0.066;2022-10-31T04:04:27;17.30;99.90
43183;DHT22;28802;38.578;-0.066;2022-10-31T04:06:56;17.30;99.90
43183;DHT22;28802;38.578;-0.066;2022-10-31T04:09:25;17.20;99.90
43183;DHT22;28802;38.578;-0.066;2022-10-31T04:11:54;17.20;99.90
43183;DHT22;28802;38.578;-0.066;2022-10-31T04:14:37;17.30;99.90
43183;DHT22;28802;38.578;-0.066;2022-10-31T04:17:07;17.40;99.90
43183;DHT22;28802;38.578;-0.066;2022-10-31T04:19:38;17.40;99.90
43183;DHT22;28802;38.578;-0.066;2022-10-31T04:22:04;17.50;99.90
43183;DHT22;28802;38.578;-0.066;2022-10-31T04:24:30;17.40;99.90
43183;DHT22;28802;38.578;-0.066;2022-10-31T04:26:57;17.40;99.90
43183;DHT22;28802;38.578;-0.066;2022-10-31T04:29:23;17.40;99.90
43183;DHT22;28802;38.578;-0.066;2022-10-31T04:31:50;17.40;99.90
43183;DHT22;28802;38.578;-0.066;2022-10-31T04:34:16;17.40;99.90
43183;DHT22;28802;38.578;-0.066;2022-10-31T04:36:42;17.50;99.90
43183;DHT22;28802;38.578;-0.066;2022-10-31T04:39:08;17.40;99.90
43183;DHT22;28802;38.578;-0.066;2022-10-31T04:41:43;17.30;99.90
43183;DHT22;28802;38.578;-0.066;2022-10-31T04:44:15;17.40;99.90
43183;DHT22;28802;38.578;-0.066;2022-10-31T04:46:41;17.50;99.90
43183;DHT22;28802;38.578;-0.066;2022-10-31T04:49:08;17.40;99.90
43183;DHT22;28802;38.578;-0.066;2022-10-31T04:51:34;17.40;99.90
43183;DHT22;28802;38.578;-0.066;2022-10-31T04:54:00;17.30;99.90
43183;DHT22;28802;38.578;-0.066;2022-10-31T04:56:44;17.30;99.90
43183;DHT22;28802;38.578;-0.066;2022-10-31T04:59:16;17.30;99.90
43183;DHT22;28802;38.578;-0.066;2022-10-31T05:01:48;17.40;99.90
43183;DHT22;28802;38.578;-0.066;2022-10-31T05:04:16;17.30;99.90
43183;DHT22;28802;38.578;-0.066;2022-10-31T05:06:42;17.30;99.90
43183;DHT22;28802;38.578;-0.066;2022-10-31T05:09:08;17.30;99.90
43183;DHT22;28802;38.578;-0.066;2022-10-31T05:11:34;17.40;99.90
43183;DHT22;28802;38.578;-0.066;2022-10-31T05:14:12;17.30;99.90
43183;DHT22;28802;38.578;-0.066;2022-10-31T05:17:01;17.30;99.90
43183;DHT22;28802;38.578;-0.066;2022-10-31T05:20:02;17.20;99.90
43183;DHT22;28802;38.578;-0.066;2022-10-31T05:23:03;17.10;99.90
43183;DHT22;28802;38.578;-0.066;2022-10-31T05:25:29;17.20;99.90
43183;DHT22;28802;38.578;-0.066;2022-10-31T05:27:56;17.20;99.90
43183;DHT22;28802;38.578;-0.066;2022-10-31T05:30:25;17.20;99.90
43183;DHT22;28802;38.578;-0.066;2022-10-31T05:32:51;17.10;99.90
43183;DHT22;28802;38.578;-0.066;2022-10-31T05:35:46;17.20;99.90
43183;DHT22;28802;38.578;-0.066;2022-10-31T05:38:31;17.20;99.90
43183;DHT22;28802;38.578;-0.066;2022-10-31T05:41:05;17.10;99.90
43183;DHT22;28802;38.578;-0.066;2022-10-31T05:43:32;17.10;99.90
43183;DHT22;28802;38.578;-0.066;2022-10-31T05:45:59;17.10;99.90
43183;DHT22;28802;38.578;-0.066;2022-10-31T05:49:00;17.10;99.90
43183;DHT22;28802;38.578;-0.066;2022-10-31T05:51:45;17.00;99.90
43183;DHT22;28802;38.578;-0.066;2022-10-31T05:54:11;17.00;99.90
43183;DHT22;28802;38.578;-0.066;2022-10-31T05:56:38;16.90;99.90
43183;DHT22;28802;38.578;-0.066;2022-10-31T05:59:04;17.00;99.90
43183;DHT22;28802;38.578;-0.066;2022-10-31T06:01:30;16.90;99.90
43183;DHT22;28802;38.578;-0.066;2022-10-31T06:04:02;16.90;99.90
43183;DHT22;28802;38.578;-0.066;2022-10-31T06:06:28;16.90;99.90
43183;DHT22;28802;38.578;-0.066;2022-10-31T06:08:54;16.90;99.90
43183;DHT22;28802;38.578;-0.066;2022-10-31T06:11:21;16.90;99.90
43183;DHT22;28802;38.578;-0.066;2022-10-31T06:14:03;16.90;99.90
43183;DHT22;28802;38.578;-0.066;2022-10-31T06:16:44;17.00;99.90
43183;DHT22;28802;38.578;-0.066;2022-10-31T06:19:33;17.00;99.90
43183;DHT22;28802;38.578;-0.066;2022-10-31T06:21:59;17.00;99.90
43183;DHT22;28802;38.578;-0.066;2022-10-31T06:24:25;16.90;99.90
43183;DHT22;28802;38.578;-0.066;2022-10-31T06:27:18;17.00;99.90
43183;DHT22;28802;38.578;-0.066;2022-10-31T06:29:44;17.00;99.90
43183;DHT22;28802;38.578;-0.066;2022-10-31T06:32:18;17.00;99.90
43183;DHT22;28802;38.578;-0.066;2022-10-31T06:34:45;17.00;99.90
43183;DHT22;28802;38.578;-0.066;2022-10-31T06:37:14;17.00;99.90
43183;DHT22;28802;38.578;-0.066;2022-10-31T06:39:43;17.00;99.90
43183;DHT22;28802;38.578;-0.066;2022-10-31T06:42:11;17.00;99.90
43183;DHT22;28802;38.578;-0.066;2022-10-31T06:44:37;17.10;99.90
43183;DHT22;28802;38.578;-0.066;2022-10-31T06:47:41;17.00;99.90
43183;DHT22;28802;38.578;-0.066;2022-10-31T06:50:10;17.10;99.90
43183;DHT22;28802;38.578;-0.066;2022-10-31T06:52:36;17.00;99.90
43183;DHT22;28802;38.578;-0.066;2022-10-31T06:55:03;17.20;99.90
43183;DHT22;28802;38.578;-0.066;2022-10-31T06:57:31;17.30;99.90
43183;DHT22;28802;38.578;-0.066;2022-10-31T06:59:57;17.40;99.90
43183;DHT22;28802;38.578;-0.066;2022-10-31T07:02:43;17.50;99.90
43183;DHT22;28802;38.578;-0.066;2022-10-31T07:05:09;17.50;99.90
43183;DHT22;28802;38.578;-0.066;2022-10-31T07:07:35;17.50;99.90
43183;DHT22;28802;38.578;-0.066;2022-10-31T07:10:02;17.70;99.90
43183;DHT22;28802;38.578;-0.066;2022-10-31T07:12:44;17.90;99.90
43183;DHT22;28802;38.578;-0.066;2022-10-31T07:15:10;17.90;99.90
43183;DHT22;28802;38.578;-0.066;2022-10-31T07:17:37;18.00;99.90
43183;DHT22;28802;38.578;-0.066;2022-10-31T07:20:03;18.20;99.90
43183;DHT22;28802;38.578;-0.066;2022-10-31T07:22:36;18.50;99.90
43183;DHT22;28802;38.578;-0.066;2022-10-31T07:25:05;18.70;99.90
43183;DHT22;28802;38.578;-0.066;2022-10-31T07:28:01;18.90;99.90
43183;DHT22;28802;38.578;-0.066;2022-10-31T07:30:31;19.20;99.90
43183;DHT22;28802;38.578;-0.066;2022-10-31T07:32:57;19.40;99.90
43183;DHT22;28802;38.578;-0.066;2022-10-31T07:35:39;19.80;99.90
43183;DHT22;28802;38.578;-0.066;2022-10-31T07:38:12;19.90;99.90
43183;DHT22;28802;38.578;-0.066;2022-10-31T07:40:40;19.90;99.90
43183;DHT22;28802;38.578;-0.066;2022-10-31T07:43:08;20.00;99.90
43183;DHT22;28802;38.578;-0.066;2022-10-31T07:46:05;19.90;99.90
43183;DHT22;28802;38.578;-0.066;2022-10-31T07:48:49;20.30;99.90
43183;DHT22;28802;38.578;-0.066;2022-10-31T07:51:47;20.30;99.90
43183;DHT22;28802;38.578;-0.066;2022-10-31T07:54:33;20.60;99.90
43183;DHT22;28802;38.578;-0.066;2022-10-31T07:56:59;20.60;99.90
43183;DHT22;28802;38.578;-0.066;2022-10-31T07:59:25;20.70;99.90
43183;DHT22;28802;38.578;-0.066;2022-10-31T08:01:53;20.70;99.90
43183;DHT22;28802;38.578;-0.066;2022-10-31T08:04:38;20.80;99.90
43183;DHT22;28802;38.578;-0.066;2022-10-31T08:07:23;21.10;99.90
43183;DHT22;28802;38.578;-0.066;2022-10-31T08:09:56;21.60;99.90
43183;DHT22;28802;38.578;-0.066;2022-10-31T08:12:25;22.10;99.90
43183;DHT22;28802;38.578;-0.066;2022-10-31T08:14:53;22.40;99.90
43183;DHT22;28802;38.578;-0.066;2022-10-31T08:17:19;22.70;99.90
43183;DHT22;28802;38.578;-0.066;2022-10-31T08:19:56;23.30;99.90
43183;DHT22;28802;38.578;-0.066;2022-10-31T08:22:33;23.90;99.90
43183;DHT22;28802;38.578;-0.066;2022-10-31T08:25:00;24.10;99.90
43183;DHT22;28802;38.578;-0.066;2022-10-31T08:27:27;24.30;99.90
43183;DHT22;28802;38.578;-0.066;2022-10-31T08:29:58;24.70;99.90
43183;DHT22;28802;38.578;-0.066;2022-10-31T08:32:24;24.80;99.90
43183;DHT22;28802;38.578;-0.066;2022-10-31T08:35:09;25.00;99.90
43183;DHT22;28802;38.578;-0.066;2022-10-31T08:37:54;25.40;99.90
43183;DHT22;28802;38.578;-0.066;2022-10-31T08:40:25;25.70;99.90
43183;DHT22;28802;38.578;-0.066;2022-10-31T08:43:06;25.90;99.90
43183;DHT22;28802;38.578;-0.066;2022-10-31T08:45:34;26.30;99.90
43183;DHT22;28802;38.578;-0.066;2022-10-31T08:48:05;26.90;99.90
43183;DHT22;28802;38.578;-0.066;2022-10-31T08:50:33;27.20;99.90
43183;DHT22;28802;38.578;-0.066;2022-10-31T08:53:00;27.60;99.90
43183;DHT22;28802;38.578;-0.066;2022-10-31T08:55:27;28.20;99.90
43183;DHT22;28802;38.578;-0.066;2022-10-31T08:58:05;28.40;99.90
43183;DHT22;28802;38.578;-0.066;2022-10-31T09:00:45;28.80;99.90
43183;DHT22;28802;38.578;-0.066;2022-10-31T09:03:20;29.20;99.90
43183;DHT22;28802;38.578;-0.066;2022-10-31T09:06:00;29.20;99.90
43183;DHT22;28802;38.578;-0.066;2022-10-31T09:08:30;28.40;99.90
43183;DHT22;28802;38.578;-0.066;2022-10-31T09:10:57;26.80;99.90
43183;DHT22;28802;38.578;-0.066;2022-10-31T09:13:43;26.60;99.90
43183;DHT22;28802;38.578;-0.066;2022-10-31T09:16:27;27.60;99.90
43183;DHT22;28802;38.578;-0.066;2022-10-31T09:18:53;27.50;99.90
43183;DHT22;28802;38.578;-0.066;2022-10-31T09:21:19;26.90;99.90
43183;DHT22;28802;38.578;-0.066;2022-10-31T09:23:46;26.70;99.90
43183;DHT22;28802;38.578;-0.066;2022-10-31T09:26:12;26.90;99.90
43183;DHT22;28802;38.578;-0.066;2022-10-31T09:28:56;26.80;99.90
43183;DHT22;28802;38.578;-0.066;2022-10-31T09:31:23;25.50;99.90
43183;DHT22;28802;38.578;-0.066;2022-10-31T09:33:54;25.20;99.90
43183;DHT22;28802;38.578;-0.066;2022-10-31T09:36:47;24.00;99.90
43183;DHT22;28802;38.578;-0.066;2022-10-31T09:39:21;24.50;99.90
43183;DHT22;28802;38.578;-0.066;2022-10-31T09:45:39;23.50;99.90
43183;DHT22;28802;38.578;-0.066;2022-10-31T09:48:52;24.30;99.90
43183;DHT22;28802;38.578;-0.066;2022-10-31T09:51:40;24.80;99.90
43183;DHT22;28802;38.578;-0.066;2022-10-31T09:54:38;24.20;99.90
43183;DHT22;28802;38.578;-0.066;2022-10-31T09:57:12;24.00;99.90
43183;DHT22;28802;38.578;-0.066;2022-10-31T09:59:40;23.90;99.90
43183;DHT22;28802;38.578;-0.066;2022-10-31T10:05:11;24.10;99.90
43183;DHT22;28802;38.578;-0.066;2022-10-31T10:11:29;23.70;99.90
43183;DHT22;28802;38.578;-0.066;2022-10-31T10:17:19;25.30;99.90
43183;DHT22;28802;38.578;-0.066;2022-10-31T10:25:39;25.90;99.90
43183;DHT22;28802;38.578;-0.066;2022-10-31T10:28:20;25.60;99.90
43183;DHT22;28802;38.578;-0.066;2022-10-31T10:30:57;26.30;99.90
43183;DHT22;28802;38.578;-0.066;2022-10-31T10:33:32;27.00;99.90
43183;DHT22;28802;38.578;-0.066;2022-10-31T10:36:01;26.80;99.90
43183;DHT22;28802;38.578;-0.066;2022-10-31T10:41:30;26.60;99.90
43183;DHT22;28802;38.578;-0.066;2022-10-31T10:43:57;26.40;99.90
43183;DHT22;28802;38.578;-0.066;2022-10-31T10:46:44;26.20;99.90
43183;DHT22;28802;38.578;-0.066;2022-10-31T10:49:50;26.30;99.90
43183;DHT22;28802;38.578;-0.066;2022-10-31T10:52:35;26.00;99.90
43183;DHT22;28802;38.578;-0.066;2022-10-31T11:03:06;27.00;99.90
43183;DHT22;28802;38.578;-0.066;2022-10-31T11:05:43;27.00;99.90
43183;DHT22;28802;38.578;-0.066;2022-10-31T11:08:10;27.00;99.90
43183;DHT22;28802;38.578;-0.066;2022-10-31T11:10:36;27.20;99.90
43183;DHT22;28802;38.578;-0.066;2022-10-31T11:16:06;26.00;99.90
43183;DHT22;28802;38.578;-0.066;2022-10-31T11:18:34;26.30;99.90
43183;DHT22;28802;38.578;-0.066;2022-10-31T11:21:03;27.00;99.90
43183;DHT22;28802;38.578;-0.066;2022-10-31T11:23:30;27.50;99.90
43183;DHT22;28802;38.578;-0.066;2022-10-31T11:26:02;27.70;99.90
43183;DHT22;28802;38.578;-0.066;2022-10-31T11:28:30;27.70;99.90
43183;DHT22;28802;38.578;-0.066;2022-10-31T11:31:16;27.50;99.90
43183;DHT22;28802;38.578;-0.066;2022-10-31T11:33:45;27.70;99.90
43183;DHT22;28802;38.578;-0.066;2022-10-31T11:36:21;27.80;99.90
43183;DHT22;28802;38.578;-0.066;2022-10-31T11:38:48;27.20;99.90
43183;DHT22;28802;38.578;-0.066;2022-10-31T11:41:24;27.20;99.90
43183;DHT22;28802;38.578;-0.066;2022-10-31T11:43:54;27.40;99.90
43183;DHT22;28802;38.578;-0.066;2022-10-31T11:46:45;27.20;99.90
43183;DHT22;28802;38.578;-0.066;2022-10-31T11:49:30;27.30;99.90
43183;DHT22;28802;38.578;-0.066;2022-10-31T11:51:59;26.70;99.90
43183;DHT22;28802;38.578;-0.066;2022-10-31T11:54:29;26.50;99.90
43183;DHT22;28802;38.578;-0.066;2022-10-31T11:56:56;26.90;99.90
43183;DHT22;28802;38.578;-0.066;2022-10-31T11:59:30;27.30;99.90
43183;DHT22;28802;38.578;-0.066;2022-10-31T12:01:58;26.70;99.90
43183;DHT22;28802;38.578;-0.066;2022-10-31T12:04:59;26.60;99.90
43183;DHT22;28802;38.578;-0.066;2022-10-31T12:07:26;25.90;99.90
43183;DHT22;28802;38.578;-0.066;2022-10-31T12:09:52;25.60;99.90
43183;DHT22;28802;38.578;-0.066;2022-10-31T12:15:26;25.90;99.90
43183;DHT22;28802;38.578;-0.066;2022-10-31T12:18:14;25.80;99.90
43183;DHT22;28802;38.578;-0.066;2022-10-31T12:37:20;25.20;99.90
43183;DHT22;28802;38.578;-0.066;2022-10-31T12:40:15;25.00;99.90
43183;DHT22;28802;38.578;-0.066;2022-10-31T12:42:52;25.10;99.90
43183;DHT22;28802;38.578;-0.066;2022-10-31T12:48:24;25.50;99.90
43183;DHT22;28802;38.578;-0.066;2022-10-31T13:02:17;25.20;99.90
43183;DHT22;28802;38.578;-0.066;2022-10-31T13:10:07;25.10;99.90
43183;DHT22;28802;38.578;-0.066;2022-10-31T13:12:39;24.80;99.90
43183;DHT22;28802;38.578;-0.066;2022-10-31T13:15:19;24.60;99.90
43183;DHT22;28802;38.578;-0.066;2022-10-31T13:17:53;24.60;99.90
43183;DHT22;28802;38.578;-0.066;2022-10-31T13:20:33;24.30;99.90
43183;DHT22;28802;38.578;-0.066;2022-10-31T13:23:22;24.20;99.90
43183;DHT22;28802;38.578;-0.066;2022-10-31T13:25:53;24.20;99.90
43183;DHT22;28802;38.578;-0.066;2022-10-31T13:28:35;24.30;99.90
43183;DHT22;28802;38.578;-0.066;2022-10-31T13:31:02;24.50;99.90
43183;DHT22;28802;38.578;-0.066;2022-10-31T13:33:29;24.40;99.90
43183;DHT22;28802;38.578;-0.066;2022-10-31T13:38:56;24.60;99.90
43183;DHT22;28802;38.578;-0.066;2022-10-31T13:41:43;24.90;99.90
43183;DHT22;28802;38.578;-0.066;2022-10-31T13:46:41;24.80;99.90
43183;DHT22;28802;38.578;-0.066;2022-10-31T13:54:46;25.00;99.90
43183;DHT22;28802;38.578;-0.066;2022-10-31T13:57:34;25.10;99.90
43183;DHT22;28802;38.578;-0.066;2022-10-31T14:02:55;25.00;99.90
43183;DHT22;28802;38.578;-0.066;2022-10-31T14:05:33;24.60;99.90
43183;DHT22;28802;38.578;-0.066;2022-10-31T14:08:02;24.60;99.90
43183;DHT22;28802;38.578;-0.066;2022-10-31T14:10:35;24.60;99.90
43183;DHT22;28802;38.578;-0.066;2022-10-31T14:15:56;24.60;99.90
43183;DHT22;28802;38.578;-0.066;2022-10-31T14:20:58;24.20;99.90
43183;DHT22;28802;38.578;-0.066;2022-10-31T14:26:18;24.30;99.90
43183;DHT22;28802;38.578;-0.066;2022-10-31T14:28:45;24.30;99.90
43183;DHT22;28802;38.578;-0.066;2022-10-31T14:31:45;24.20;99.90
43183;DHT22;28802;38.578;-0.066;2022-10-31T14:34:34;24.30;99.90
43183;DHT22;28802;38.578;-0.066;2022-10-31T14:48:41;24.20;99.90
43183;DHT22;28802;38.578;-0.066;2022-10-31T14:51:22;24.50;99.90
43183;DHT22;28802;38.578;-0.066;2022-10-31T14:53:53;24.30;99.90
43183;DHT22;28802;38.578;-0.066;2022-10-31T14:56:31;24.30;99.90
43183;DHT22;28802;38.578;-0.066;2022-10-31T14:59:08;24.30;99.90
43183;DHT22;28802;38.578;-0.066;2022-10-31T15:01:36;24.00;99.90
43183;DHT22;28802;38.578;-0.066;2022-10-31T15:04:18;24.00;99.90
43183;DHT22;28802;38.578;-0.066;2022-10-31T15:06:48;23.90;99.90
43183;DHT22;28802;38.578;-0.066;2022-10-31T15:09:44;24.00;99.90
43183;DHT22;28802;38.578;-0.066;2022-10-31T15:12:30;23.90;99.90
43183;DHT22;28802;38.578;-0.066;2022-10-31T15:14:57;23.90;99.90
43183;DHT22;28802;38.578;-0.066;2022-10-31T15:17:25;23.90;99.90
43183;DHT22;28802;38.578;-0.066;2022-10-31T15:19:52;23.90;99.90
43183;DHT22;28802;38.578;-0.066;2022-10-31T15:22:22;23.80;99.90
43183;DHT22;28802;38.578;-0.066;2022-10-31T15:24:49;23.70;99.90
43183;DHT22;28802;38.578;-0.066;2022-10-31T15:27:21;23.70;99.90
43183;DHT22;28802;38.578;-0.066;2022-10-31T15:29:57;23.70;99.90
43183;DHT22;28802;38.578;-0.066;2022-10-31T15:32:24;23.70;99.90
43183;DHT22;28802;38.578;-0.066;2022-10-31T15:34:51;23.60;99.90
43183;DHT22;28802;38.578;-0.066;2022-10-31T15:37:19;23.60;99.90
43183;DHT22;28802;38.578;-0.066;2022-10-31T15:39:47;23.60;99.90
43183;DHT22;28802;38.578;-0.066;2022-10-31T15:47:37;23.50;99.90
43183;DHT22;28802;38.578;-0.066;2022-10-31T15:50:17;23.40;99.90
43183;DHT22;28802;38.578;-0.066;2022-10-31T15:52:46;23.30;99.90
43183;DHT22;28802;38.578;-0.066;2022-10-31T15:55:21;23.30;99.90
43183;DHT22;28802;38.578;-0.066;2022-10-31T15:57:54;23.30;99.90
43183;DHT22;28802;38.578;-0.066;2022-10-31T16:00:29;23.30;99.90
43183;DHT22;28802;38.578;-0.066;2022-10-31T16:13:34;23.20;99.90
43183;DHT22;28802;38.578;-0.066;2022-10-31T16:16:03;23.10;99.90
43183;DHT22;28802;38.578;-0.066;2022-10-31T16:18:35;23.10;99.90
43183;DHT22;28802;38.578;-0.066;2022-10-31T16:21:03;23.10;99.90
43183;DHT22;28802;38.578;-0.066;2022-10-31T16:23:29;23.10;99.90
43183;DHT22;28802;38.578;-0.066;2022-10-31T16:25:55;23.10;99.90
43183;DHT22;28802;38.578;-0.066;2022-10-31T16:28:25;23.00;99.90
43183;DHT22;28802;38.578;-0.066;2022-10-31T16:30:56;23.00;99.90
43183;DHT22;28802;38.578;-0.066;2022-10-31T16:33:27;22.90;99.90
43183;DHT22;28802;38.578;-0.066;2022-10-31T16:35:55;22.90;99.90
43183;DHT22;28802;38.578;-0.066;2022-10-31T16:38:21;22.90;99.90
43183;DHT22;28802;38.578;-0.066;2022-10-31T16:40:48;23.00;99.90
43183;DHT22;28802;38.578;-0.066;2022-10-31T16:43:15;22.90;99.90
43183;DHT22;28802;38.578;-0.066;2022-10-31T16:45:47;22.90;99.90
43183;DHT22;28802;38.578;-0.066;2022-10-31T16:48:16;22.80;99.90
43183;DHT22;28802;38.578;-0.066;2022-10-31T16:50:45;22.70;99.90
43183;DHT22;28802;38.578;-0.066;2022-10-31T16:53:12;22.60;99.90
43183;DHT22;28802;38.578;-0.066;2022-10-31T16:55:56;22.70;99.90
43183;DHT22;28802;38.578;-0.066;2022-10-31T16:58:29;22.70;99.90
43183;DHT22;28802;38.578;-0.066;2022-10-31T17:00:56;22.70;99.90
43183;DHT22;28802;38.578;-0.066;2022-10-31T17:03:22;22.60;99.90
43183;DHT22;28802;38.578;-0.066;2022-10-31T17:05:48;22.50;99.90
43183;DHT22;28802;38.578;-0.066;2022-10-31T17:08:14;22.50;99.90
43183;DHT22;28802;38.578;-0.066;2022-10-31T17:10:41;22.40;99.90
43183;DHT22;28802;38.578;-0.066;2022-10-31T17:13:13;22.40;99.90
43183;DHT22;28802;38.578;-0.066;2022-10-31T17:15:47;22.50;99.90
43183;DHT22;28802;38.578;-0.066;2022-10-31T17:18:15;22.60;99.90
43183;DHT22;28802;38.578;-0.066;2022-10-31T17:20:42;22.50;99.90
43183;DHT22;28802;38.578;-0.066;2022-10-31T17:23:10;22.60;99.90
43183;DHT22;28802;38.578;-0.066;2022-10-31T17:25:37;22.60;99.90
43183;DHT22;28802;38.578;-0.066;2022-10-31T17:28:03;22.60;99.90
43183;DHT22;28802;38.578;-0.066;2022-10-31T17:30:30;22.60;99.90
43183;DHT22;28802;38.578;-0.066;2022-10-31T17:32:57;22.50;99.90
43183;DHT22;28802;38.578;-0.066;2022-10-31T17:35:23;22.40;99.90
43183;DHT22;28802;38.578;-0.066;2022-10-31T17:37:49;22.30;99.90
43183;DHT22;28802;38.578;-0.066;2022-10-31T17:40:18;22.30;99.90
43183;DHT22;28802;38.578;-0.066;2022-10-31T17:42:52;22.20;99.90
43183;DHT22;28802;38.578;-0.066;2022-10-31T17:45:19;22.10;99.90
43183;DHT22;28802;38.578;-0.066;2022-10-31T17:47:49;22.00;99.90
43183;DHT22;28802;38.578;-0.066;2022-10-31T17:50:18;22.00;99.90
43183;DHT22;28802;38.578;-0.066;2022-10-31T17:52:46;22.00;99.90
43183;DHT22;28802;38.578;-0.066;2022-10-31T17:55:12;22.00;99.90
43183;DHT22;28802;38.578;-0.066;2022-10-31T17:57:38;22.00;99.90
43183;DHT22;28802;38.578;-0.066;2022-10-31T18:00:07;21.90;99.90
43183;DHT22;28802;38.578;-0.066;2022-10-31T18:02:37;21.80;99.90
43183;DHT22;28802;38.578;-0.066;2022-10-31T18:05:05;21.80;99.90
43183;DHT22;28802;38.578;-0.066;2022-10-31T18:07:31;21.80;99.90
43183;DHT22;28802;38.578;-0.066;2022-10-31T18:09:58;21.80;99.90
43183;DHT22;28802;38.578;-0.066;2022-10-31T18:12:24;21.90;99.90
43183;DHT22;28802;38.578;-0.066;2022-10-31T18:14:51;21.80;99.90
43183;DHT22;28802;38.578;-0.066;2022-10-31T18:17:17;21.80;99.90
43183;DHT22;28802;38.578;-0.066;2022-10-31T18:19:43;21.70;99.90
43183;DHT22;28802;38.578;-0.066;2022-10-31T18:22:11;21.70;99.90
43183;DHT22;28802;38.578;-0.066;2022-10-31T18:24:37;21.70;99.90
43183;DHT22;28802;38.578;-0.066;2022-10-31T18:27:03;21.70;99.90
43183;DHT22;28802;38.578;-0.066;2022-10-31T18:29:30;21.50;99.90
43183;DHT22;28802;38.578;-0.066;2022-10-31T18:31:56;21.50;99.90